createdAt,value
2022-12-18T00:01:24.624Z,10.63
2022-12-18T00:03:51.656Z,10.27
2022-12-18T00:06:18.093Z,8.93
2022-12-18T00:08:44.770Z,9.98
2022-12-18T00:11:15.213Z,10.05
2022-12-18T00:13:42.180Z,8.02
2022-12-18T00:16:10.355Z,11.15
2022-12-18T00:18:37.177Z,9.63
2022-12-18T00:21:05.111Z,11.13
2022-12-18T00:23:32.103Z,10.38
2022-12-18T00:26:01.835Z,9.75
2022-12-18T00:28:28.185Z,9.05
2022-12-18T00:31:04.731Z,9.05
2022-12-18T00:33:31.480Z,9.90
2022-12-18T00:36:14.650Z,9.20
2022-12-18T00:38:41.445Z,9.65
2022-12-18T00:41:08.316Z,10.07
2022-12-18T00:43:34.739Z,10.60
2022-12-18T00:46:01.093Z,9.18
2022-12-18T00:48:27.400Z,9.95
2022-12-18T00:50:53.645Z,7.97
2022-12-18T00:53:19.906Z,9.77
2022-12-18T00:55:46.722Z,9.77
2022-12-18T00:58:13.680Z,9.93
2022-12-18T01:00:39.956Z,9.30
2022-12-18T01:03:06.723Z,10.77
2022-12-18T01:05:33.168Z,10.38
2022-12-18T01:07:59.840Z,10.27
2022-12-18T01:10:26.163Z,8.73
2022-12-18T01:12:52.440Z,9.98
2022-12-18T01:15:19.010Z,9.93
2022-12-18T01:17:45.293Z,7.47
2022-12-18T01:20:12.610Z,8.75
2022-12-18T01:22:39.027Z,10.57
2022-12-18T01:25:05.479Z,8.48
2022-12-18T01:27:32.314Z,8.88
2022-12-18T01:29:58.593Z,9.35
2022-12-18T01:32:24.840Z,8.00
2022-12-18T01:34:51.055Z,8.98
2022-12-18T01:37:17.358Z,10.10
2022-12-18T01:39:43.581Z,9.25
2022-12-18T01:42:14.262Z,9.63
2022-12-18T01:44:59.425Z,10.38
2022-12-18T01:47:37.544Z,9.27
2022-12-18T01:50:08.761Z,11.10
2022-12-18T01:52:36.481Z,8.43
2022-12-18T01:55:04.229Z,10.70
2022-12-18T01:57:30.658Z,10.15
2022-12-18T01:59:59.975Z,8.40
2022-12-18T02:02:27.734Z,9.75
2022-12-18T02:04:54.089Z,8.30
2022-12-18T02:07:20.341Z,8.02
2022-12-18T02:09:51.405Z,10.02
2022-12-18T02:14:52.945Z,9.77
2022-12-18T02:17:21.972Z,9.57
2022-12-18T02:19:55.909Z,10.65
2022-12-18T02:22:24.937Z,9.55
2022-12-18T02:25:10.027Z,9.20
2022-12-18T02:27:37.940Z,7.38
2022-12-18T02:30:04.937Z,10.85
2022-12-18T02:32:46.144Z,8.52
2022-12-18T02:35:21.593Z,10.23
2022-12-18T02:37:48.118Z,8.98
2022-12-18T02:40:15.508Z,9.20
2022-12-18T02:42:42.200Z,11.13
2022-12-18T02:45:08.726Z,8.52
2022-12-18T02:47:38.769Z,10.75
2022-12-18T02:50:16.400Z,10.38
2022-12-18T02:53:01.128Z,8.18
2022-12-18T02:55:30.419Z,8.35
2022-12-18T02:57:59.361Z,8.80
2022-12-18T03:00:32.720Z,8.75
2022-12-18T03:03:02.865Z,9.10
2022-12-18T03:05:32.360Z,8.15
2022-12-18T03:08:07.994Z,8.27
2022-12-18T03:10:39.396Z,8.73
2022-12-18T03:13:08.314Z,9.50
2022-12-18T03:15:44.445Z,9.10
2022-12-18T03:18:23.754Z,8.27
2022-12-18T03:20:51.826Z,9.23
2022-12-18T03:23:22.299Z,8.68
2022-12-18T03:25:53.220Z,7.78
2022-12-18T03:28:21.582Z,8.57
2022-12-18T03:30:48.479Z,7.85
2022-12-18T03:33:20.430Z,7.30
2022-12-18T03:35:47.150Z,8.65
2022-12-18T03:38:13.643Z,6.82
2022-12-18T03:40:51.859Z,7.43
2022-12-18T03:43:25.768Z,6.78
2022-12-18T03:46:00.285Z,6.53
2022-12-18T03:48:26.551Z,7.22
2022-12-18T03:50:57.076Z,8.48
2022-12-18T03:53:23.336Z,6.72
2022-12-18T03:55:51.038Z,6.78
2022-12-18T03:58:19.314Z,8.77
2022-12-18T04:00:46.747Z,7.22
2022-12-18T04:03:13.338Z,7.93
2022-12-18T04:05:40.092Z,7.53
2022-12-18T04:08:06.496Z,6.50
2022-12-18T04:10:32.789Z,8.32
2022-12-18T04:12:59.391Z,7.55
2022-12-18T04:15:25.727Z,8.15
2022-12-18T04:17:52.454Z,7.30
2022-12-18T04:20:18.774Z,6.90
2022-12-18T04:22:45.022Z,5.68
2022-12-18T04:25:12.860Z,6.43
2022-12-18T04:27:39.130Z,7.57
2022-12-18T04:30:05.721Z,6.35
2022-12-18T04:32:32.024Z,6.05
2022-12-18T04:34:58.294Z,3.97
2022-12-18T04:37:24.614Z,7.78
2022-12-18T04:39:50.873Z,5.43
2022-12-18T04:42:17.140Z,7.18
2022-12-18T04:44:43.436Z,6.18
2022-12-18T04:47:09.661Z,6.20
2022-12-18T04:49:35.884Z,6.35
2022-12-18T04:52:02.182Z,6.43
2022-12-18T04:54:28.461Z,7.00
2022-12-18T04:56:54.698Z,6.65
2022-12-18T04:59:21.507Z,5.75
2022-12-18T05:01:47.909Z,5.00
2022-12-18T05:04:14.372Z,5.55
2022-12-18T05:06:40.692Z,7.25
2022-12-18T05:09:06.921Z,5.18
2022-12-18T05:11:33.148Z,5.50
2022-12-18T05:13:59.514Z,4.97
2022-12-18T05:16:25.962Z,6.07
2022-12-18T05:18:52.281Z,6.15
2022-12-18T05:21:18.492Z,4.65
2022-12-18T05:23:44.759Z,6.65
2022-12-18T05:26:14.969Z,5.38
2022-12-18T05:28:41.271Z,5.80
2022-12-18T05:31:07.698Z,4.40
2022-12-18T05:33:34.865Z,4.70
2022-12-18T05:36:05.215Z,4.80
2022-12-18T05:38:32.053Z,4.72
2022-12-18T05:40:58.327Z,5.35
2022-12-18T05:43:25.278Z,6.63
2022-12-18T05:45:52.356Z,4.70
2022-12-18T05:48:18.628Z,4.88
2022-12-18T05:50:46.459Z,5.13
2022-12-18T05:53:13.539Z,3.83
2022-12-18T05:55:40.990Z,6.32
2022-12-18T05:58:07.948Z,4.65
2022-12-18T06:00:35.772Z,5.90
2022-12-18T06:03:02.583Z,4.32
2022-12-18T06:05:29.164Z,6.35
2022-12-18T06:07:55.442Z,5.00
2022-12-18T06:10:21.685Z,3.78
2022-12-18T06:12:47.900Z,5.40
2022-12-18T06:15:14.181Z,4.15
2022-12-18T06:17:40.559Z,4.18
2022-12-18T06:20:07.856Z,4.95
2022-12-18T06:22:34.445Z,4.13
2022-12-18T06:25:00.713Z,5.22
2022-12-18T06:27:26.989Z,5.28
2022-12-18T06:29:53.253Z,4.70
2022-12-18T06:32:19.633Z,4.68
2022-12-18T06:34:45.874Z,4.93
2022-12-18T06:37:13.354Z,3.53
2022-12-18T06:39:39.579Z,5.72
2022-12-18T06:42:05.953Z,4.90
2022-12-18T06:44:32.318Z,4.05
2022-12-18T06:46:58.595Z,5.47
2022-12-18T06:49:30.282Z,4.15
2022-12-18T06:51:56.917Z,4.82
2022-12-18T06:54:23.176Z,5.05
2022-12-18T06:56:50.274Z,4.28
2022-12-18T06:59:17.276Z,5.93
2022-12-18T07:01:43.704Z,5.47
2022-12-18T07:04:10.117Z,4.78
2022-12-18T07:06:36.397Z,6.13
2022-12-18T07:09:02.693Z,4.03
2022-12-18T07:11:28.922Z,4.57
2022-12-18T07:13:55.407Z,4.40
2022-12-18T07:16:25.380Z,4.65
2022-12-18T07:18:52.424Z,5.10
2022-12-18T07:21:19.677Z,5.72
2022-12-18T07:23:48.661Z,4.25
2022-12-18T07:26:15.675Z,4.20
2022-12-18T07:28:42.480Z,4.57
2022-12-18T07:31:09.865Z,5.55
2022-12-18T07:33:36.752Z,5.10
2022-12-18T07:36:04.529Z,4.60
2022-12-18T07:38:30.853Z,3.80
2022-12-18T07:41:05.852Z,5.20
2022-12-18T07:43:33.383Z,4.28
2022-12-18T07:45:59.717Z,3.92
2022-12-18T07:48:26.025Z,4.20
2022-12-18T07:50:52.350Z,5.07
2022-12-18T07:53:18.629Z,5.13
2022-12-18T07:56:17.844Z,3.83
2022-12-18T07:58:31.426Z,4.60
2022-12-18T08:01:07.878Z,4.30
2022-12-18T08:03:34.262Z,5.30
2022-12-18T08:06:04.434Z,6.53
2022-12-18T08:08:31.166Z,4.43
2022-12-18T08:10:57.768Z,3.83
2022-12-18T08:13:24.554Z,4.30
2022-12-18T08:16:17.040Z,5.90
2022-12-18T08:18:43.445Z,4.60
2022-12-18T08:21:13.679Z,5.50
2022-12-18T08:23:43.154Z,4.17
2022-12-18T08:26:10.429Z,4.00
2022-12-18T08:28:36.793Z,4.85
2022-12-18T08:31:03.429Z,4.72
2022-12-18T08:33:29.786Z,4.90
2022-12-18T08:35:56.067Z,5.30
2022-12-18T08:38:23.802Z,6.57
2022-12-18T08:40:50.040Z,5.07
2022-12-18T08:43:34.969Z,3.28
2022-12-18T08:46:01.296Z,5.72
2022-12-18T08:48:27.610Z,4.65
2022-12-18T08:50:57.927Z,4.82
2022-12-18T08:53:31.431Z,5.50
2022-12-18T08:56:00.421Z,4.45
2022-12-18T08:58:26.689Z,5.40
2022-12-18T09:00:52.985Z,4.68
2022-12-18T09:03:19.943Z,5.25
2022-12-18T09:05:46.947Z,5.70
2022-12-18T09:08:13.196Z,4.90
2022-12-18T09:10:43.696Z,4.00
2022-12-18T09:13:10.869Z,4.75
2022-12-18T09:15:41.557Z,5.90
2022-12-18T09:18:08.109Z,4.30
2022-12-18T09:20:34.429Z,4.93
2022-12-18T09:23:00.663Z,5.03
2022-12-18T09:25:28.616Z,5.30
2022-12-18T09:27:54.832Z,4.43
2022-12-18T09:30:21.088Z,4.72
2022-12-18T09:32:47.325Z,2.95
2022-12-18T09:35:13.609Z,3.63
2022-12-18T09:37:39.917Z,4.53
2022-12-18T09:40:06.593Z,4.75
2022-12-18T09:42:32.953Z,4.57
2022-12-18T09:44:59.803Z,4.35
2022-12-18T09:47:28.594Z,4.28
2022-12-18T09:49:59.872Z,4.20
2022-12-18T09:52:28.546Z,4.95
2022-12-18T09:54:58.809Z,4.40
2022-12-18T09:57:25.610Z,4.80
2022-12-18T10:00:02.858Z,3.38
2022-12-18T10:02:31.581Z,4.72
2022-12-18T10:05:03.857Z,4.28
2022-12-18T10:07:46.485Z,4.47
2022-12-18T10:10:21.845Z,3.13
2022-12-18T10:12:57.259Z,3.63
2022-12-18T10:15:37.260Z,3.53
2022-12-18T10:18:03.563Z,4.32
2022-12-18T10:20:39.600Z,5.38
2022-12-18T10:23:15.001Z,3.45
2022-12-18T10:25:55.023Z,3.67
2022-12-18T10:28:21.764Z,4.60
2022-12-18T10:30:48.069Z,4.40
2022-12-18T10:33:18.956Z,5.28
2022-12-18T10:35:45.714Z,5.40
2022-12-18T10:38:17.900Z,5.72
2022-12-18T10:40:50.500Z,1.85
2022-12-18T10:43:20.188Z,3.97
2022-12-18T10:45:58.537Z,4.32
2022-12-18T10:48:24.992Z,4.03
2022-12-18T10:53:40.870Z,4.35
2022-12-18T10:56:07.376Z,4.10
2022-12-18T10:58:34.921Z,4.18
2022-12-18T11:01:06.178Z,4.93
2022-12-18T11:03:37.790Z,4.18
2022-12-18T11:06:10.238Z,3.60
2022-12-18T11:08:36.770Z,3.63
2022-12-18T11:11:03.464Z,4.25
2022-12-18T11:13:31.172Z,3.92
2022-12-18T11:15:57.821Z,3.97
2022-12-18T11:18:27.081Z,3.75
2022-12-18T11:20:58.724Z,4.47
2022-12-18T11:23:25.885Z,3.97
2022-12-18T11:25:53.368Z,4.53
2022-12-18T11:28:36.863Z,4.60
2022-12-18T11:31:18.172Z,3.60
2022-12-18T11:34:27.306Z,5.22
2022-12-18T11:36:46.903Z,2.78
2022-12-18T11:39:18.108Z,3.70
2022-12-18T11:42:10.524Z,4.47
2022-12-18T11:44:41.560Z,3.83
2022-12-18T11:49:35.572Z,3.10
2022-12-18T11:52:10.279Z,5.05
2022-12-18T11:54:37.038Z,3.40
2022-12-18T11:57:10.736Z,3.78
2022-12-18T11:59:55.172Z,3.83
2022-12-18T12:02:42.322Z,3.47
2022-12-18T12:05:27.633Z,3.17
2022-12-18T12:08:07.762Z,4.20
2022-12-18T12:10:48.079Z,4.53
2022-12-18T12:13:21.063Z,2.97
2022-12-18T12:16:01.301Z,3.53
2022-12-18T12:18:27.636Z,4.57
2022-12-18T12:20:56.945Z,4.20
2022-12-18T12:23:29.264Z,3.22
2022-12-18T12:26:18.450Z,4.78
2022-12-18T12:28:44.687Z,3.80
2022-12-18T12:31:44.453Z,4.22
2022-12-18T12:34:18.333Z,4.82
2022-12-18T12:36:47.432Z,3.90
2022-12-18T12:39:16.625Z,4.47
2022-12-18T12:42:02.079Z,5.25
2022-12-18T12:44:30.493Z,4.00
2022-12-18T12:47:00.332Z,4.15
2022-12-18T12:49:28.305Z,3.90
2022-12-18T12:52:02.661Z,4.82
2022-12-18T12:54:29.228Z,4.55
2022-12-18T12:56:58.794Z,5.25
2022-12-18T12:59:25.080Z,5.90
2022-12-18T13:02:05.702Z,4.20
2022-12-18T13:04:47.099Z,3.90
2022-12-18T13:09:59.442Z,3.35
2022-12-18T13:12:44.553Z,4.95
2022-12-18T13:15:21.532Z,4.05
2022-12-18T13:17:47.821Z,2.97
2022-12-18T13:20:16.629Z,5.07
2022-12-18T13:22:50.010Z,4.30
2022-12-18T13:25:33.759Z,4.13
2022-12-18T13:28:05.013Z,4.78
2022-12-18T13:30:34.018Z,4.70
2022-12-18T13:33:26.589Z,3.45
2022-12-18T13:36:01.134Z,5.20
2022-12-18T13:38:37.758Z,3.75
2022-12-18T13:41:16.341Z,5.72
2022-12-18T13:43:45.240Z,4.45
2022-12-18T13:46:20.414Z,4.70
2022-12-18T13:48:59.222Z,4.00
2022-12-18T13:51:26.255Z,5.20
2022-12-18T13:53:57.734Z,4.43
2022-12-18T13:56:35.797Z,4.75
2022-12-18T13:59:17.287Z,5.13
2022-12-18T14:01:48.109Z,4.60
2022-12-18T14:04:22.346Z,4.32
2022-12-18T14:06:50.073Z,5.72
2022-12-18T14:09:23.957Z,5.15
2022-12-18T14:11:50.850Z,3.90
2022-12-18T14:14:18.741Z,6.35
2022-12-18T14:16:47.848Z,4.53
2022-12-18T14:19:18.621Z,4.05
2022-12-18T14:21:48.911Z,5.20
2022-12-18T14:24:20.098Z,4.35
2022-12-18T14:26:46.937Z,5.35
2022-12-18T14:29:25.725Z,4.15
2022-12-18T14:32:11.785Z,5.85
2022-12-18T14:34:41.470Z,5.65
2022-12-18T14:37:10.524Z,5.97
2022-12-18T14:39:36.789Z,4.88
2022-12-18T14:42:03.106Z,4.78
2022-12-18T14:44:39.125Z,4.53
2022-12-18T14:47:17.517Z,5.05
2022-12-18T14:49:44.019Z,4.75
2022-12-18T14:52:23.707Z,4.25
2022-12-18T14:54:50.077Z,5.50
2022-12-18T14:57:24.188Z,4.57
2022-12-18T14:59:51.014Z,4.28
2022-12-18T15:02:23.465Z,6.05
2022-12-18T15:05:00.651Z,6.57
2022-12-18T15:07:26.926Z,4.47
2022-12-18T15:10:02.320Z,5.20
2022-12-18T15:12:42.389Z,4.30
2022-12-18T15:15:27.681Z,5.50
2022-12-18T15:18:03.565Z,5.18
2022-12-18T15:20:33.781Z,4.25
2022-12-18T15:23:00.086Z,4.83
2022-12-18T15:25:37.781Z,4.93
2022-12-18T15:28:05.045Z,5.88
2022-12-18T15:30:32.362Z,5.20
2022-12-18T15:33:18.221Z,5.35
2022-12-18T15:35:47.217Z,5.32
2022-12-18T15:38:13.614Z,4.28
2022-12-18T15:40:39.890Z,4.80
2022-12-18T15:43:24.897Z,5.07
2022-12-18T15:45:51.162Z,5.18
2022-12-18T15:48:23.529Z,5.53
2022-12-18T15:50:51.408Z,6.18
2022-12-18T15:53:18.232Z,4.50
2022-12-18T15:56:04.487Z,5.22
2022-12-18T15:58:31.212Z,4.57
2022-12-18T16:00:59.362Z,4.15
2022-12-18T16:03:25.704Z,6.18
2022-12-18T16:05:52.593Z,4.78
2022-12-18T16:08:18.850Z,5.40
2022-12-18T16:10:45.100Z,5.70
2022-12-18T16:13:11.894Z,5.88
2022-12-18T16:15:38.452Z,4.68
2022-12-18T16:18:05.183Z,4.03
2022-12-18T16:20:31.482Z,5.32
2022-12-18T16:22:57.733Z,4.90
2022-12-18T16:25:25.228Z,4.72
2022-12-18T16:27:52.213Z,6.43
2022-12-18T16:30:20.470Z,5.05
2022-12-18T16:32:46.813Z,6.55
2022-12-18T16:35:13.918Z,5.43
2022-12-18T16:37:40.973Z,4.95
2022-12-18T16:40:09.786Z,6.85
2022-12-18T16:42:37.310Z,4.57
2022-12-18T16:45:04.185Z,5.05
2022-12-18T16:47:30.556Z,6.25
2022-12-18T16:49:56.788Z,4.95
2022-12-18T16:52:23.106Z,3.30
2022-12-18T16:54:49.452Z,5.57
2022-12-18T16:57:17.865Z,5.50
2022-12-18T16:59:44.627Z,4.88
2022-12-18T17:02:19.195Z,7.88
2022-12-18T17:04:49.833Z,6.78
2022-12-18T17:07:16.481Z,5.82
2022-12-18T17:09:42.812Z,5.10
2022-12-18T17:12:09.449Z,6.00
2022-12-18T17:14:36.222Z,5.72
2022-12-18T17:19:49.271Z,5.28
2022-12-18T17:22:15.597Z,6.03
2022-12-18T17:24:41.832Z,5.90
2022-12-18T17:27:08.827Z,6.00
2022-12-18T17:29:35.191Z,6.18
2022-12-18T17:32:01.456Z,5.40
2022-12-18T17:34:27.979Z,7.00
2022-12-18T17:36:54.550Z,5.90
2022-12-18T17:39:20.895Z,7.13
2022-12-18T17:41:47.757Z,5.85
2022-12-18T17:44:14.281Z,5.70
2022-12-18T17:46:40.857Z,5.22
2022-12-18T17:49:07.394Z,6.50
2022-12-18T17:51:33.958Z,7.28
2022-12-18T17:54:00.302Z,6.18
2022-12-18T17:56:26.623Z,6.18
2022-12-18T17:58:53.469Z,7.05
2022-12-18T18:01:21.537Z,6.28
2022-12-18T18:03:49.273Z,5.57
2022-12-18T18:06:19.716Z,5.88
2022-12-18T18:08:46.014Z,5.95
2022-12-18T18:11:32.893Z,5.45
2022-12-18T18:14:02.300Z,6.95
2022-12-18T18:16:29.516Z,5.50
2022-12-18T18:18:59.419Z,6.00
2022-12-18T18:21:25.852Z,7.43
2022-12-18T18:23:52.413Z,5.97
2022-12-18T18:26:19.564Z,5.25
2022-12-18T18:28:45.800Z,6.00
2022-12-18T18:31:12.768Z,6.63
2022-12-18T18:33:39.490Z,7.75
2022-12-18T18:36:08.943Z,6.68
2022-12-18T18:38:38.757Z,7.63
2022-12-18T18:41:05.526Z,6.95
2022-12-18T18:43:31.827Z,7.05
2022-12-18T18:45:59.118Z,4.78
2022-12-18T18:48:26.097Z,4.43
2022-12-18T18:50:58.701Z,5.85
2022-12-18T18:53:25.004Z,6.13
2022-12-18T18:56:10.248Z,6.95
2022-12-18T18:58:38.157Z,6.45
2022-12-18T19:01:06.391Z,5.75
2022-12-18T19:03:33.481Z,5.57
2022-12-18T19:06:00.706Z,8.07
2022-12-18T19:08:28.267Z,7.32
2022-12-18T19:10:57.791Z,5.00
2022-12-18T19:13:25.030Z,5.13
2022-12-18T19:15:52.229Z,7.75
2022-12-18T19:18:18.826Z,5.43
2022-12-18T19:20:54.051Z,5.95
2022-12-18T19:23:20.441Z,6.57
2022-12-18T19:25:46.708Z,8.45
2022-12-18T19:28:18.153Z,6.00
2022-12-18T19:30:48.707Z,5.57
2022-12-18T19:33:34.476Z,5.10
2022-12-18T19:36:01.568Z,6.00
2022-12-18T19:38:29.901Z,7.43
2022-12-18T19:40:56.173Z,5.43
2022-12-18T19:43:22.468Z,5.30
2022-12-18T19:45:54.328Z,5.10
2022-12-18T19:48:20.674Z,5.50
2022-12-18T19:50:46.956Z,7.03
2022-12-18T19:53:13.291Z,5.55
2022-12-18T19:55:40.339Z,6.43
2022-12-18T19:58:09.509Z,5.88
2022-12-18T20:00:36.316Z,7.47
2022-12-18T20:03:12.533Z,6.20
2022-12-18T20:05:44.573Z,6.65
2022-12-18T20:08:10.872Z,5.68
2022-12-18T20:10:37.169Z,6.50
2022-12-18T20:13:03.517Z,7.72
2022-12-18T20:15:30.102Z,7.07
2022-12-18T20:17:56.410Z,6.35
2022-12-18T20:20:23.105Z,6.75
2022-12-18T20:22:49.574Z,6.05
2022-12-18T20:25:18.574Z,5.90
2022-12-18T20:27:44.971Z,5.57
2022-12-18T20:30:11.609Z,5.65
2022-12-18T20:32:37.926Z,5.72
2022-12-18T20:35:04.411Z,7.35
2022-12-18T20:37:31.690Z,7.65
2022-12-18T20:39:57.915Z,6.03
2022-12-18T20:42:25.111Z,6.43
2022-12-18T20:44:51.406Z,6.93
2022-12-18T20:47:17.749Z,7.05
2022-12-18T20:49:45.598Z,7.15
2022-12-18T20:52:12.681Z,8.02
2022-12-18T20:54:38.917Z,5.57
2022-12-18T20:57:05.188Z,6.53
2022-12-18T20:59:31.463Z,7.28
2022-12-18T21:01:57.999Z,7.60
2022-12-18T21:04:24.586Z,6.80
2022-12-18T21:06:59.134Z,7.75
2022-12-18T21:09:32.317Z,7.47
2022-12-18T21:12:23.878Z,7.45
2022-12-18T21:14:50.143Z,9.07
2022-12-18T21:17:16.725Z,7.03
2022-12-18T21:19:43.121Z,7.85
2022-12-18T21:22:10.121Z,8.45
2022-12-18T21:24:36.510Z,5.72
2022-12-18T21:27:03.370Z,6.50
2022-12-18T21:29:29.655Z,4.18
2022-12-18T21:31:56.004Z,7.65
2022-12-18T21:34:25.341Z,6.50
2022-12-18T21:36:51.954Z,5.28
2022-12-18T21:39:18.650Z,9.02
2022-12-18T21:42:06.731Z,7.90
2022-12-18T21:44:35.696Z,7.50
2022-12-18T21:47:21.298Z,6.47
2022-12-18T21:49:49.449Z,7.40
2022-12-18T21:52:16.554Z,5.97
2022-12-18T21:54:42.843Z,6.25
2022-12-18T21:57:10.868Z,7.57
2022-12-18T21:59:38.011Z,6.95
2022-12-18T22:02:05.913Z,5.68
2022-12-18T22:04:32.230Z,9.88
2022-12-18T22:07:01.985Z,7.13
2022-12-18T22:09:28.464Z,6.80
2022-12-18T22:11:54.792Z,7.88
2022-12-18T22:14:21.191Z,5.25
2022-12-18T22:16:47.753Z,7.13
2022-12-18T22:19:14.959Z,9.60
2022-12-18T22:21:42.464Z,6.60
2022-12-18T22:24:13.325Z,7.25
2022-12-18T22:26:40.468Z,7.60
2022-12-18T22:29:25.927Z,7.53
2022-12-18T22:31:52.296Z,8.20
2022-12-18T22:34:22.877Z,7.95
2022-12-18T22:39:20.378Z,6.68
2022-12-18T22:41:48.046Z,7.30
2022-12-18T22:44:15.038Z,8.32
2022-12-18T22:46:46.088Z,8.73
2022-12-18T22:49:16.772Z,7.13
2022-12-18T22:51:43.603Z,6.00
2022-12-18T22:54:10.140Z,5.78
2022-12-18T22:56:36.633Z,7.07
2022-12-18T22:59:03.814Z,6.78
2022-12-18T23:01:30.969Z,7.82
2022-12-18T23:03:57.805Z,9.32
2022-12-18T23:06:24.772Z,6.53
2022-12-18T23:08:55.837Z,6.43
2022-12-18T23:11:22.348Z,7.05
2022-12-18T23:13:48.681Z,6.00
2022-12-18T23:16:16.573Z,6.70
2022-12-18T23:18:43.204Z,8.07
2022-12-18T23:21:16.472Z,9.52
2022-12-18T23:23:43.861Z,7.65
2022-12-18T23:26:11.544Z,7.93
2022-12-18T23:28:38.373Z,6.88
2022-12-18T23:31:10.181Z,5.45
2022-12-18T23:33:36.576Z,8.48
2022-12-18T23:36:03.860Z,8.25
2022-12-18T23:38:30.789Z,9.90
2022-12-18T23:40:57.543Z,9.07
2022-12-18T23:43:24.782Z,6.97
2022-12-18T23:45:55.685Z,7.50
2022-12-18T23:48:22.361Z,5.78
2022-12-18T23:50:48.603Z,8.63
2022-12-18T23:53:14.897Z,9.25
2022-12-18T23:55:42.394Z,8.68
2022-12-18T23:58:18.553Z,8.88
